createdAt,value
2022-09-20T00:00:58.756Z,21.6
2022-09-20T00:02:01.593Z,21.7
2022-09-20T00:03:03.813Z,21.7
2022-09-20T00:04:06.368Z,21.7
2022-09-20T00:05:10.035Z,21.7
2022-09-20T00:06:12.845Z,21.7
2022-09-20T00:07:15.330Z,21.6
2022-09-20T00:08:17.528Z,21.6
2022-09-20T00:09:19.718Z,21.7
2022-09-20T00:10:22.190Z,21.7
2022-09-20T00:11:24.129Z,21.8
2022-09-20T00:12:26.332Z,21.6
2022-09-20T00:13:28.566Z,21.7
2022-09-20T00:14:30.791Z,21.7
2022-09-20T00:15:33.254Z,21.7
2022-09-20T00:16:35.669Z,21.7
2022-09-20T00:17:38.251Z,21.7
2022-09-20T00:18:40.150Z,21.8
2022-09-20T00:19:42.657Z,21.7
2022-09-20T00:20:44.829Z,21.7
2022-09-20T00:21:47.027Z,21.7
2022-09-20T00:22:49.521Z,21.8
2022-09-20T00:23:51.990Z,21.8
2022-09-20T00:24:54.451Z,21.7
2022-09-20T00:25:56.633Z,21.8
2022-09-20T00:26:58.851Z,21.7
2022-09-20T00:28:01.323Z,21.7
2022-09-20T00:29:03.820Z,21.8
2022-09-20T00:30:06.057Z,21.8
2022-09-20T00:31:08.537Z,21.8
2022-09-20T00:32:11.167Z,21.8
2022-09-20T00:33:14.013Z,21.8
2022-09-20T00:34:16.253Z,21.7
2022-09-20T00:35:18.455Z,21.8
2022-09-20T00:36:20.943Z,21.9
2022-09-20T00:37:22.849Z,21.8
2022-09-20T00:38:25.062Z,21.8
2022-09-20T00:39:27.554Z,21.7
2022-09-20T00:40:30.412Z,21.8
2022-09-20T00:41:32.986Z,21.8
2022-09-20T00:42:35.206Z,21.9
2022-09-20T00:43:37.674Z,21.8
2022-09-20T00:44:40.187Z,21.8
2022-09-20T00:45:42.825Z,21.8
2022-09-20T00:46:45.496Z,21.8
2022-09-20T00:47:47.705Z,21.7
2022-09-20T00:48:49.904Z,21.9
2022-09-20T00:49:52.383Z,21.8
2022-09-20T00:50:54.858Z,21.9
2022-09-20T00:51:57.329Z,21.7
2022-09-20T00:52:59.798Z,21.7
2022-09-20T00:54:01.993Z,21.8
2022-09-20T00:55:04.473Z,21.9
2022-09-20T00:56:06.951Z,21.8
2022-09-20T00:57:09.424Z,21.9
2022-09-20T00:58:11.911Z,21.8
2022-09-20T00:59:14.091Z,21.7
2022-09-20T01:00:15.767Z,21.8
2022-09-20T01:01:18.102Z,21.9
2022-09-20T01:02:21.093Z,21.8
2022-09-20T01:03:23.359Z,21.9
2022-09-20T01:04:25.577Z,21.9
2022-09-20T01:05:27.755Z,21.8
2022-09-20T01:06:29.925Z,21.9
2022-09-20T01:07:32.409Z,21.9
2022-09-20T01:08:34.880Z,21.9
2022-09-20T01:09:37.092Z,21.8
2022-09-20T01:10:39.591Z,21.9
2022-09-20T01:11:41.772Z,21.8
2022-09-20T01:12:44.254Z,21.9
2022-09-20T01:13:46.457Z,21.9
2022-09-20T01:14:48.658Z,21.8
2022-09-20T01:15:50.881Z,21.9
2022-09-20T01:16:53.698Z,21.8
2022-09-20T01:17:56.274Z,21.8
2022-09-20T01:18:58.767Z,21.9
2022-09-20T01:20:00.936Z,21.9
2022-09-20T01:21:03.137Z,21.8
2022-09-20T01:22:05.330Z,21.9
2022-09-20T01:23:07.806Z,21.9
2022-09-20T01:24:09.734Z,21.9
2022-09-20T01:25:12.228Z,21.8
2022-09-20T01:26:14.707Z,21.9
2022-09-20T01:27:17.210Z,21.9
2022-09-20T01:28:19.388Z,21.9
2022-09-20T01:29:21.894Z,21.9
2022-09-20T01:30:24.121Z,21.9
2022-09-20T01:31:26.500Z,21.9
2022-09-20T01:32:29.099Z,21.9
2022-09-20T01:33:31.037Z,21.9
2022-09-20T01:34:33.508Z,21.9
2022-09-20T01:35:35.716Z,21.8
2022-09-20T01:36:38.203Z,22
2022-09-20T01:37:40.675Z,21.9
2022-09-20T01:38:43.143Z,21.8
2022-09-20T01:39:45.347Z,21.9
2022-09-20T01:40:48.009Z,22
2022-09-20T01:41:50.289Z,21.9
2022-09-20T01:42:52.489Z,21.9
2022-09-20T01:43:55.014Z,21.9
2022-09-20T01:44:57.669Z,21.9
2022-09-20T01:46:00.017Z,22
2022-09-20T01:47:02.666Z,22
2022-09-20T01:48:05.389Z,21.9
2022-09-20T01:49:08.094Z,22
2022-09-20T01:50:10.209Z,21.9
2022-09-20T01:51:12.411Z,22
2022-09-20T01:52:14.588Z,22
2022-09-20T01:53:17.049Z,21.9
2022-09-20T01:54:19.253Z,22
2022-09-20T01:55:21.718Z,22
2022-09-20T01:56:23.390Z,22
2022-09-20T01:58:30.001Z,22
2022-09-20T01:59:32.842Z,21.9
2022-09-20T02:00:35.073Z,22
2022-09-20T02:01:37.702Z,22
2022-09-20T02:02:40.676Z,22
2022-09-20T02:03:43.160Z,21.9
2022-09-20T02:04:45.365Z,21.9
2022-09-20T02:05:47.545Z,21.9
2022-09-20T02:06:49.736Z,22
2022-09-20T02:07:51.664Z,22
2022-09-20T02:08:54.146Z,22
2022-09-20T02:09:56.499Z,22
2022-09-20T02:10:58.982Z,22
2022-09-20T02:12:01.490Z,22
2022-09-20T02:13:03.965Z,22
2022-09-20T02:14:06.720Z,22
2022-09-20T02:15:09.411Z,21.9
2022-09-20T02:16:12.060Z,22
2022-09-20T02:17:14.651Z,22
2022-09-20T02:18:17.161Z,22
2022-09-20T02:19:19.393Z,22
2022-09-20T02:20:21.866Z,22
2022-09-20T02:21:24.083Z,22
2022-09-20T02:22:26.000Z,22.1
2022-09-20T02:23:28.469Z,22
2022-09-20T02:24:30.678Z,22
2022-09-20T02:25:33.149Z,22
2022-09-20T02:26:35.626Z,22
2022-09-20T02:27:37.830Z,22
2022-09-20T02:28:39.734Z,22
2022-09-20T02:29:42.205Z,22
2022-09-20T02:30:44.381Z,22
2022-09-20T02:31:46.947Z,22
2022-09-20T02:32:49.869Z,22
2022-09-20T02:33:52.479Z,22
2022-09-20T02:34:55.049Z,22.1
2022-09-20T02:35:57.536Z,22
2022-09-20T02:36:59.743Z,22
2022-09-20T02:38:01.935Z,22
2022-09-20T02:39:04.407Z,22
2022-09-20T02:40:06.727Z,21.9
2022-09-20T02:41:09.373Z,22
2022-09-20T02:42:11.574Z,22.1
2022-09-20T02:43:14.066Z,22
2022-09-20T02:44:16.237Z,22.1
2022-09-20T02:45:18.436Z,22
2022-09-20T02:46:20.863Z,21.9
2022-09-20T02:47:23.729Z,22
2022-09-20T02:48:26.261Z,22.1
2022-09-20T02:49:28.758Z,22.1
2022-09-20T02:50:31.275Z,22.1
2022-09-20T02:51:33.482Z,22
2022-09-20T02:52:35.959Z,22
2022-09-20T02:53:37.885Z,22
2022-09-20T02:54:40.086Z,22
2022-09-20T02:55:42.551Z,22
2022-09-20T02:56:45.026Z,22
2022-09-20T02:57:47.498Z,22
2022-09-20T02:58:49.691Z,22
2022-09-20T02:59:51.885Z,22
2022-09-20T03:00:54.217Z,22
2022-09-20T03:01:56.811Z,22.1
2022-09-20T03:02:59.231Z,22
2022-09-20T03:04:01.692Z,22.1
2022-09-20T03:05:04.189Z,22.1
2022-09-20T03:06:06.700Z,22
2022-09-20T03:07:08.873Z,22.1
2022-09-20T03:08:11.336Z,22
2022-09-20T03:09:13.810Z,21.9
2022-09-20T03:10:16.275Z,22
2022-09-20T03:11:18.466Z,22
2022-09-20T03:12:20.937Z,22
2022-09-20T03:13:23.142Z,21.9
2022-09-20T03:14:25.355Z,21.9
2022-09-20T03:15:27.552Z,21.8
2022-09-20T03:16:30.192Z,21.8
2022-09-20T03:17:32.915Z,21.9
2022-09-20T03:18:35.399Z,21.9
2022-09-20T03:19:37.593Z,21.8
2022-09-20T03:20:39.806Z,21.7
2022-09-20T03:21:42.360Z,21.8
2022-09-20T03:22:44.011Z,21.8
2022-09-20T03:23:46.207Z,21.7
2022-09-20T03:24:48.694Z,21.7
2022-09-20T03:25:51.164Z,21.7
2022-09-20T03:26:52.778Z,21.7
2022-09-20T03:27:54.974Z,21.7
2022-09-20T03:28:57.455Z,21.7
2022-09-20T03:30:00.027Z,21.7
2022-09-20T03:31:02.222Z,21.6
2022-09-20T03:32:04.921Z,21.7
2022-09-20T03:33:07.672Z,21.7
2022-09-20T03:34:10.175Z,21.6
2022-09-20T03:35:12.651Z,21.6
2022-09-20T03:36:14.862Z,21.6
2022-09-20T03:37:17.356Z,21.7
2022-09-20T03:38:19.835Z,21.7
2022-09-20T03:39:22.301Z,21.6
2022-09-20T03:40:24.976Z,21.7
2022-09-20T03:41:27.803Z,21.6
2022-09-20T03:42:29.740Z,21.6
2022-09-20T03:43:31.911Z,21.5
2022-09-20T03:44:34.387Z,21.6
2022-09-20T03:45:36.749Z,21.7
2022-09-20T03:46:39.104Z,21.6
2022-09-20T03:47:41.585Z,21.6
2022-09-20T03:48:43.792Z,21.6
2022-09-20T03:49:46.302Z,21.7
2022-09-20T03:50:48.768Z,21.5
2022-09-20T03:51:50.992Z,21.6
2022-09-20T03:52:53.493Z,21.5
2022-09-20T03:53:56.068Z,21.5
2022-09-20T03:54:58.366Z,21.6
2022-09-20T03:56:00.844Z,21.6
2022-09-20T03:57:03.309Z,21.6
2022-09-20T03:59:10.779Z,21.5
2022-09-20T04:00:12.976Z,21.6
2022-09-20T04:01:15.440Z,21.5
2022-09-20T04:02:17.727Z,21.6
2022-09-20T04:03:20.400Z,21.6
2022-09-20T04:04:22.601Z,21.5
2022-09-20T04:05:25.096Z,21.6
2022-09-20T04:06:27.311Z,21.6
2022-09-20T04:07:29.802Z,21.5
2022-09-20T04:08:33.951Z,21.6
2022-09-20T04:09:37.892Z,21.4
2022-09-20T04:10:40.251Z,21.5
2022-09-20T04:11:42.739Z,21.5
2022-09-20T04:12:45.216Z,21.4
2022-09-20T04:13:47.687Z,21.6
2022-09-20T04:14:50.157Z,21.5
2022-09-20T04:15:52.631Z,21.5
2022-09-20T04:16:55.295Z,21.6
2022-09-20T04:17:57.780Z,21.6
2022-09-20T04:18:59.961Z,21.6
2022-09-20T04:20:02.164Z,21.5
2022-09-20T04:21:04.673Z,21.5
2022-09-20T04:22:06.862Z,21.4
2022-09-20T04:23:08.834Z,21.5
2022-09-20T04:24:11.331Z,21.5
2022-09-20T04:25:13.545Z,21.6
2022-09-20T04:26:15.714Z,21.5
2022-09-20T04:27:18.199Z,21.5
2022-09-20T04:28:20.395Z,21.5
2022-09-20T04:29:22.583Z,21.5
2022-09-20T04:30:25.056Z,21.5
2022-09-20T04:31:27.393Z,21.4
2022-09-20T04:32:30.020Z,21.5
2022-09-20T04:33:32.194Z,21.4
2022-09-20T04:34:34.670Z,21.5
2022-09-20T04:35:37.144Z,21.5
2022-09-20T04:36:39.355Z,21.5
2022-09-20T04:37:41.839Z,21.5
2022-09-20T04:38:44.028Z,21.5
2022-09-20T04:39:46.534Z,21.4
2022-09-20T04:40:49.070Z,21.5
2022-09-20T04:41:51.669Z,21.4
2022-09-20T04:42:53.874Z,21.6
2022-09-20T04:43:56.350Z,21.6
2022-09-20T04:44:58.838Z,21.5
2022-09-20T04:46:01.493Z,21.5
2022-09-20T04:47:04.344Z,21.5
2022-09-20T04:48:06.845Z,21.4
2022-09-20T04:49:09.316Z,21.5
2022-09-20T04:50:11.798Z,21.5
2022-09-20T04:51:14.490Z,21.5
2022-09-20T04:52:16.979Z,21.5
2022-09-20T04:53:19.175Z,21.4
2022-09-20T04:54:21.673Z,21.4
2022-09-20T04:55:24.172Z,21.4
2022-09-20T04:56:26.368Z,21.5
2022-09-20T04:57:28.839Z,21.5
2022-09-20T04:58:31.040Z,21.4
2022-09-20T04:59:33.232Z,21.5
2022-09-20T05:00:35.706Z,21.5
2022-09-20T05:01:38.393Z,21.4
2022-09-20T05:02:41.034Z,21.4
2022-09-20T05:03:43.863Z,21.6
2022-09-20T05:04:46.336Z,21.4
2022-09-20T05:05:48.821Z,21.5
2022-09-20T05:06:50.991Z,21.4
2022-09-20T05:07:53.485Z,21.5
2022-09-20T05:10:00.973Z,21.4
2022-09-20T05:11:03.494Z,21.4
2022-09-20T05:12:05.957Z,21.4
2022-09-20T05:13:08.155Z,21.3
2022-09-20T05:14:10.619Z,21.4
2022-09-20T05:15:12.826Z,21.4
2022-09-20T05:16:15.379Z,21.4
2022-09-20T05:17:17.959Z,21.5
2022-09-20T05:18:20.147Z,21.5
2022-09-20T05:19:22.666Z,21.5
2022-09-20T05:20:25.137Z,21.3
2022-09-20T05:21:27.354Z,21.4
2022-09-20T05:22:29.546Z,21.5
2022-09-20T05:23:31.783Z,21.4
2022-09-20T05:24:34.251Z,21.3
2022-09-20T05:25:36.475Z,21.5
2022-09-20T05:26:38.986Z,21.4
2022-09-20T05:27:41.485Z,21.3
2022-09-20T05:28:43.388Z,21.4
2022-09-20T05:29:45.591Z,21.3
2022-09-20T05:30:47.791Z,21.4
2022-09-20T05:31:50.434Z,21.5
2022-09-20T05:32:53.142Z,21.3
2022-09-20T05:33:55.371Z,21.4
2022-09-20T05:34:57.876Z,21.4
2022-09-20T05:36:00.065Z,21.4
2022-09-20T05:37:01.969Z,21.4
2022-09-20T05:38:04.444Z,21.4
2022-09-20T05:39:06.657Z,21.3
2022-09-20T05:40:09.227Z,21.4
2022-09-20T05:41:11.633Z,21.5
2022-09-20T05:42:13.893Z,21.3
2022-09-20T05:43:15.828Z,21.4
2022-09-20T05:44:18.035Z,21.4
2022-09-20T05:45:20.511Z,21.4
2022-09-20T05:46:22.726Z,21.4
2022-09-20T05:47:24.926Z,21.4
2022-09-20T05:48:26.853Z,21.5
2022-09-20T05:49:29.064Z,21.3
2022-09-20T05:50:31.557Z,21.3
2022-09-20T05:51:33.750Z,21.4
2022-09-20T05:52:36.225Z,21.3
2022-09-20T05:53:38.700Z,21.4
2022-09-20T05:54:40.928Z,21.4
2022-09-20T05:55:43.130Z,21.3
2022-09-20T05:56:45.382Z,21.3
2022-09-20T05:57:47.620Z,21.3
2022-09-20T05:58:49.526Z,21.4
2022-09-20T05:59:51.445Z,21.4
2022-09-20T06:00:53.752Z,21.3
2022-09-20T06:01:56.442Z,21.5
2022-09-20T06:02:58.892Z,21.5
2022-09-20T06:04:01.088Z,21.4
2022-09-20T06:05:03.567Z,21.5
2022-09-20T06:06:06.058Z,21.5
2022-09-20T06:07:08.273Z,21.3
2022-09-20T06:08:09.945Z,21.5
2022-09-20T06:09:12.446Z,21.4
2022-09-20T06:10:14.702Z,21.3
2022-09-20T06:11:16.913Z,21.4
2022-09-20T06:12:19.176Z,21.3
2022-09-20T06:13:21.711Z,21.3
2022-09-20T06:14:23.938Z,21.3
2022-09-20T06:15:25.594Z,21.4
2022-09-20T06:16:27.899Z,21.3
2022-09-20T06:17:30.511Z,21.4
2022-09-20T06:18:33.333Z,21.3
2022-09-20T06:19:35.901Z,21.3
2022-09-20T06:20:38.460Z,21.5
2022-09-20T06:21:40.995Z,21.3
2022-09-20T06:22:43.219Z,21.4
2022-09-20T06:23:45.715Z,21.4
2022-09-20T06:24:48.221Z,21.3
2022-09-20T06:25:50.753Z,21.3
2022-09-20T06:26:53.242Z,21.3
2022-09-20T06:27:55.749Z,21.3
2022-09-20T06:28:59.132Z,21.4
2022-09-20T06:30:01.659Z,21.3
2022-09-20T06:31:04.132Z,21.4
2022-09-20T06:32:06.656Z,21.4
2022-09-20T06:33:09.187Z,21.3
2022-09-20T06:34:11.691Z,21.4
2022-09-20T06:35:13.910Z,21.3
2022-09-20T06:36:16.124Z,21.3
2022-09-20T06:37:18.343Z,21.3
2022-09-20T06:38:20.850Z,21.4
2022-09-20T06:39:23.041Z,21.3
2022-09-20T06:40:25.446Z,21.3
2022-09-20T06:41:28.548Z,21.3
2022-09-20T06:42:30.774Z,21.3
2022-09-20T06:43:32.741Z,21.3
2022-09-20T06:44:35.281Z,21.3
2022-09-20T06:45:37.821Z,21.3
2022-09-20T06:46:40.463Z,21.3
2022-09-20T06:47:42.956Z,21.3
2022-09-20T06:48:45.188Z,21.4
2022-09-20T06:49:47.689Z,21.2
2022-09-20T06:50:50.201Z,21.3
2022-09-20T06:51:52.687Z,21.3
2022-09-20T06:52:55.257Z,21.4
2022-09-20T06:53:57.455Z,21.3
2022-09-20T06:54:59.929Z,21.4
2022-09-20T06:56:01.296Z,21.4
2022-09-20T06:57:03.498Z,21.2
2022-09-20T06:58:05.702Z,21.4
2022-09-20T06:59:08.331Z,21.2
2022-09-20T07:00:10.896Z,21.4
2022-09-20T07:01:12.974Z,21.3
2022-09-20T07:02:20.304Z,21.3
2022-09-20T07:03:22.725Z,21.3
2022-09-20T07:04:24.675Z,21.3
2022-09-20T07:05:26.902Z,21.3
2022-09-20T07:06:29.110Z,21.4
2022-09-20T07:07:31.332Z,21.3
2022-09-20T07:08:33.830Z,21.3
2022-09-20T07:09:36.326Z,21.3
2022-09-20T07:10:38.564Z,21.3
2022-09-20T07:11:40.765Z,21.4
2022-09-20T07:12:43.003Z,21.3
2022-09-20T07:13:45.483Z,21.3
2022-09-20T07:14:47.742Z,21.3
2022-09-20T07:15:50.271Z,21.3
2022-09-20T07:16:52.559Z,21.3
2022-09-20T07:17:54.975Z,21.3
2022-09-20T07:18:57.573Z,21.3
2022-09-20T07:19:59.786Z,21.3
2022-09-20T07:21:02.161Z,21.2
2022-09-20T07:22:04.387Z,21.2
2022-09-20T07:23:06.893Z,21.2
2022-09-20T07:24:09.183Z,21.2
2022-09-20T07:25:11.657Z,21.4
2022-09-20T07:26:13.868Z,21.2
2022-09-20T07:27:16.071Z,21.3
2022-09-20T07:28:18.573Z,21.3
2022-09-20T07:29:21.047Z,21.2
2022-09-20T07:30:23.725Z,21.3
2022-09-20T07:31:26.416Z,21.2
2022-09-20T07:32:28.863Z,21.4
2022-09-20T07:33:31.098Z,21.2
2022-09-20T07:34:33.614Z,21.3
2022-09-20T07:35:36.437Z,21.4
2022-09-20T07:36:38.411Z,21.4
2022-09-20T07:37:40.605Z,21.3
2022-09-20T07:38:42.876Z,21.3
2022-09-20T07:39:45.387Z,21.4
2022-09-20T07:40:47.787Z,21.2
2022-09-20T07:41:49.701Z,21.3
2022-09-20T07:43:57.220Z,21.3
2022-09-20T07:44:59.744Z,21.3
2022-09-20T07:46:02.320Z,21.3
2022-09-20T07:47:05.052Z,21.3
2022-09-20T07:48:07.260Z,21.3
2022-09-20T07:49:09.477Z,21.3
2022-09-20T07:50:11.688Z,21.2
2022-09-20T07:51:13.907Z,21.2
2022-09-20T07:52:16.388Z,21.2
2022-09-20T07:53:18.877Z,21.2
2022-09-20T07:54:21.352Z,21.2
2022-09-20T07:55:23.586Z,21.2
2022-09-20T07:56:26.072Z,21.3
2022-09-20T07:57:28.580Z,21.4
2022-09-20T07:58:30.788Z,21.3
2022-09-20T07:59:33.266Z,21.2
2022-09-20T08:00:35.758Z,21.3
2022-09-20T08:01:38.022Z,21.2
2022-09-20T08:02:40.707Z,21.3
2022-09-20T08:03:43.312Z,21.2
2022-09-20T08:04:45.251Z,21.3
2022-09-20T08:05:47.762Z,21.3
2022-09-20T08:06:50.246Z,21.2
2022-09-20T08:07:52.736Z,21.3
2022-09-20T08:08:54.990Z,21.2
2022-09-20T08:09:57.386Z,21.3
2022-09-20T08:10:59.661Z,21.3
2022-09-20T08:14:11.568Z,21.3
2022-09-20T08:15:13.518Z,21.2
2022-09-20T08:16:16.160Z,21.2
2022-09-20T08:17:18.575Z,21.2
2022-09-20T08:18:21.103Z,21.3
2022-09-20T08:19:23.584Z,21.3
2022-09-20T08:20:25.788Z,21.2
2022-09-20T08:21:28.282Z,21.2
2022-09-20T08:22:30.523Z,21.2
2022-09-20T08:23:32.734Z,21.3
2022-09-20T08:24:34.938Z,21.3
2022-09-20T08:25:37.148Z,21.2
2022-09-20T08:26:39.339Z,21.2
2022-09-20T08:27:41.826Z,21.3
2022-09-20T08:28:44.304Z,21.3
2022-09-20T08:29:46.543Z,21.2
2022-09-20T08:30:49.069Z,21.2
2022-09-20T08:31:51.636Z,21.3
2022-09-20T08:32:54.365Z,21.3
2022-09-20T08:33:56.967Z,21.2
2022-09-20T08:34:59.438Z,21.3
2022-09-20T08:36:01.648Z,21.2
2022-09-20T08:37:04.130Z,21.3
2022-09-20T08:40:16.490Z,21.2
2022-09-20T08:41:18.913Z,21.3
2022-09-20T08:42:21.446Z,21.2
2022-09-20T08:43:23.948Z,21.2
2022-09-20T08:44:26.487Z,21.3
2022-09-20T08:46:33.516Z,21.2
2022-09-20T08:47:36.426Z,21.1
2022-09-20T08:48:38.939Z,21.2
2022-09-20T08:50:46.162Z,21.3
2022-09-20T08:51:49.207Z,21.3
2022-09-20T08:52:51.677Z,21.2
2022-09-20T08:53:53.609Z,21.3
2022-09-20T08:54:55.807Z,21.2
2022-09-20T08:55:58.294Z,21.3
2022-09-20T08:57:00.480Z,21.2
2022-09-20T08:59:07.657Z,21.2
2022-09-20T09:00:09.858Z,21.2
2022-09-20T09:01:12.135Z,21.3
2022-09-20T09:02:15.083Z,21.2
2022-09-20T09:03:17.796Z,21.2
2022-09-20T09:04:20.296Z,21.3
2022-09-20T09:05:22.827Z,21.1
2022-09-20T09:06:25.320Z,21.2
2022-09-20T09:07:27.806Z,21.3
2022-09-20T09:08:29.746Z,21.2
2022-09-20T09:12:49.415Z,21.2
2022-09-20T09:13:51.379Z,21.3
2022-09-20T09:14:54.104Z,21.2
2022-09-20T09:15:56.090Z,21.3
2022-09-20T09:16:58.386Z,21.2
2022-09-20T09:18:01.223Z,21.3
2022-09-20T09:19:03.712Z,21.2
2022-09-20T09:20:06.194Z,21.3
2022-09-20T09:21:08.763Z,21.2
2022-09-20T09:22:11.242Z,21.3
2022-09-20T09:23:12.888Z,21.2
2022-09-20T09:24:15.379Z,21.3
2022-09-20T09:25:17.866Z,21.2
2022-09-20T09:26:20.350Z,21.1
2022-09-20T09:27:22.899Z,21.2
2022-09-20T09:28:24.822Z,21.2
2022-09-20T09:29:28.971Z,21.2
2022-09-20T09:30:32.511Z,21.3
2022-09-20T09:31:34.832Z,21.2
2022-09-20T09:32:37.433Z,21.2
2022-09-20T09:33:39.652Z,21.3
2022-09-20T09:34:42.172Z,21.3
2022-09-20T09:35:44.518Z,21.2
2022-09-20T09:36:47.104Z,21.3
2022-09-20T09:37:49.583Z,21.2
2022-09-20T09:38:52.065Z,21.3
2022-09-20T09:39:54.568Z,21.2
2022-09-20T09:40:57.059Z,21.2
2022-09-20T09:41:59.248Z,21.2
2022-09-20T09:43:01.476Z,21.2
2022-09-20T09:44:03.956Z,21.3
2022-09-20T09:45:06.442Z,21.3
2022-09-20T09:46:09.075Z,21.2
2022-09-20T09:47:11.781Z,21.2
2022-09-20T09:48:13.996Z,21.2
2022-09-20T09:49:16.976Z,21.1
2022-09-20T09:50:19.424Z,21.2
2022-09-20T09:51:21.655Z,21.3
2022-09-20T09:52:24.186Z,21.2
2022-09-20T09:53:26.698Z,21.3
2022-09-20T09:54:28.611Z,21.2
2022-09-20T09:55:30.819Z,21.2
2022-09-20T09:56:33.019Z,21.2
2022-09-20T09:57:34.659Z,21.2
2022-09-20T09:58:37.145Z,21.2
2022-09-20T09:59:39.627Z,21.1
2022-09-20T10:00:42.153Z,21.2
2022-09-20T10:01:44.815Z,21.2
2022-09-20T10:02:47.338Z,21.2
2022-09-20T10:03:49.821Z,21.2
2022-09-20T10:04:52.312Z,21.3
2022-09-20T10:05:53.984Z,21.2
2022-09-20T10:06:56.267Z,21.2
2022-09-20T10:07:58.495Z,21.1
2022-09-20T10:09:00.678Z,21.2
2022-09-20T10:10:03.149Z,21.2
2022-09-20T10:11:05.355Z,21.1
2022-09-20T10:12:07.310Z,21.1
2022-09-20T10:13:10.554Z,21.1
2022-09-20T10:14:13.091Z,21.2
2022-09-20T10:15:15.342Z,21.3
2022-09-20T10:16:17.343Z,21.2
2022-09-20T10:17:19.820Z,21.1
2022-09-20T10:18:22.011Z,21.2
2022-09-20T10:19:24.211Z,21.2
2022-09-20T10:20:26.413Z,21.1
2022-09-20T10:21:28.614Z,21.1
2022-09-20T10:22:30.544Z,21.1
2022-09-20T10:24:37.560Z,21.2
2022-09-20T10:25:39.779Z,21.2
2022-09-20T10:26:42.254Z,21.2
2022-09-20T10:27:44.480Z,21.2
2022-09-20T10:28:46.694Z,21.1
2022-09-20T10:29:49.037Z,21.2
2022-09-20T10:30:51.723Z,21.1
2022-09-20T10:31:54.594Z,21
2022-09-20T10:32:57.139Z,21.3
2022-09-20T10:33:59.479Z,21.3
2022-09-20T10:35:01.962Z,21.2
2022-09-20T10:36:04.493Z,21.2
2022-09-20T10:37:07.151Z,21.2
2022-09-20T10:38:09.219Z,21.2
2022-09-20T10:39:11.745Z,21.2
2022-09-20T10:40:14.286Z,21.2
2022-09-20T10:41:17.357Z,21.2
2022-09-20T10:42:19.286Z,21.1
2022-09-20T10:43:21.517Z,21.2
2022-09-20T10:44:23.696Z,21.2
2022-09-20T10:47:35.883Z,21.2
2022-09-20T10:48:38.099Z,21.2
2022-09-20T10:49:40.305Z,21.2
2022-09-20T10:50:42.781Z,21.2
2022-09-20T10:51:45.313Z,21.2
2022-09-20T10:52:47.852Z,21.2
2022-09-20T10:53:50.092Z,21.2
2022-09-20T10:54:52.651Z,21.2
2022-09-20T10:55:54.883Z,21.2
2022-09-20T10:56:57.426Z,21.3
2022-09-20T10:58:00.091Z,21.1
2022-09-20T10:59:02.658Z,21.2
2022-09-20T11:00:04.578Z,21.3
2022-09-20T11:01:06.897Z,21.3
2022-09-20T11:02:09.401Z,21.2
2022-09-20T11:03:11.942Z,21.2
2022-09-20T11:04:14.143Z,21.2
2022-09-20T11:05:16.066Z,21.2
2022-09-20T11:06:18.536Z,21.2
2022-09-20T11:07:20.742Z,21.2
2022-09-20T11:08:23.288Z,21.2
2022-09-20T11:09:25.540Z,21.2
2022-09-20T11:10:28.062Z,21.2
2022-09-20T11:11:30.262Z,21.3
2022-09-20T11:12:32.737Z,21.2
2022-09-20T11:13:35.219Z,21.2
2022-09-20T11:14:36.841Z,21.2
2022-09-20T11:15:39.330Z,21.3
2022-09-20T11:16:42.011Z,21.3
2022-09-20T11:17:44.599Z,21.2
2022-09-20T11:18:46.812Z,21.1
2022-09-20T11:19:49.013Z,21.1
2022-09-20T11:20:51.209Z,21.1
2022-09-20T11:21:53.730Z,21.1
2022-09-20T11:22:56.212Z,21.2
2022-09-20T11:23:58.795Z,21.1
2022-09-20T11:25:01.299Z,21.2
2022-09-20T11:26:03.825Z,21.2
2022-09-20T11:27:05.750Z,21.1
2022-09-20T11:28:08.236Z,21.1
2022-09-20T11:29:10.538Z,21.3
2022-09-20T11:30:12.482Z,21.1
2022-09-20T11:31:15.133Z,21.1
2022-09-20T11:32:17.724Z,21.2
2022-09-20T11:33:20.235Z,21.2
2022-09-20T11:34:22.460Z,21.2
2022-09-20T11:35:25.002Z,21.1
2022-09-20T11:36:27.552Z,21.3
2022-09-20T11:37:29.766Z,21.2
2022-09-20T11:38:32.271Z,21.2
2022-09-20T11:39:34.576Z,21.1
2022-09-20T11:40:36.968Z,21.1
2022-09-20T11:41:39.833Z,21.1
2022-09-20T11:42:42.033Z,21.1
2022-09-20T11:43:44.532Z,21.1
2022-09-20T11:44:47.002Z,21.2
2022-09-20T11:45:49.333Z,21.3
2022-09-20T11:46:51.764Z,21.2
2022-09-20T11:47:56.143Z,21.1
2022-09-20T11:48:58.406Z,21.2
2022-09-20T11:50:00.919Z,21.2
2022-09-20T11:51:03.136Z,21.2
2022-09-20T11:52:05.628Z,21.1
2022-09-20T11:53:08.109Z,21.2
2022-09-20T11:54:10.314Z,21.2
2022-09-20T11:55:12.847Z,21.1
2022-09-20T11:56:15.083Z,21.3
2022-09-20T11:57:17.313Z,21.1
2022-09-20T11:58:19.784Z,21.2
2022-09-20T11:59:22.268Z,21.1
2022-09-20T12:00:24.466Z,21.2
2022-09-20T12:02:32.063Z,21.2
2022-09-20T12:03:35.347Z,21.2
2022-09-20T12:04:38.332Z,21.2
2022-09-20T12:05:42.279Z,21.1
2022-09-20T12:06:44.478Z,21.2
2022-09-20T12:07:46.971Z,21.2
2022-09-20T12:08:49.433Z,21.3
2022-09-20T12:09:51.917Z,21.1
2022-09-20T12:10:54.418Z,21.2
2022-09-20T12:11:56.919Z,21
2022-09-20T12:12:59.159Z,21.2
2022-09-20T12:14:01.378Z,21.2
2022-09-20T12:15:03.894Z,21.3
2022-09-20T12:16:06.314Z,21.3
2022-09-20T12:17:08.761Z,21.3
2022-09-20T12:18:10.701Z,21.2
2022-09-20T12:19:12.605Z,21.1
2022-09-20T12:21:20.118Z,21.2
2022-09-20T12:22:22.309Z,21.1
2022-09-20T12:23:24.793Z,21.2
2022-09-20T12:24:27.009Z,21.2
2022-09-20T12:25:29.486Z,21.1
2022-09-20T12:26:31.992Z,21.3
2022-09-20T12:27:34.204Z,21.2
2022-09-20T12:28:36.717Z,21.1
2022-09-20T12:29:38.368Z,21.1
2022-09-20T12:30:40.879Z,21.2
2022-09-20T12:31:43.425Z,21.3
2022-09-20T12:32:46.016Z,21.2
2022-09-20T12:33:48.483Z,21.2
2022-09-20T12:34:50.724Z,21.1
2022-09-20T12:35:53.206Z,21.2
2022-09-20T12:36:55.516Z,21.3
2022-09-20T12:37:57.996Z,21.2
2022-09-20T12:39:00.174Z,21.2
2022-09-20T12:40:02.477Z,21.1
2022-09-20T12:41:05.194Z,21.2
2022-09-20T12:42:07.208Z,21.1
2022-09-20T12:43:09.816Z,21.1
2022-09-20T12:44:12.373Z,21.2
2022-09-20T12:45:14.845Z,21.2
2022-09-20T12:46:17.475Z,21.1
2022-09-20T12:47:19.922Z,21.2
2022-09-20T12:48:22.394Z,21.2
2022-09-20T12:49:24.872Z,21.2
2022-09-20T12:50:27.056Z,21.2
2022-09-20T12:51:29.026Z,21.1
2022-09-20T12:52:31.261Z,21.3
2022-09-20T12:53:33.752Z,21.2
2022-09-20T12:54:36.233Z,21.1
2022-09-20T12:55:38.458Z,21.2
2022-09-20T12:56:40.413Z,21.3
2022-09-20T12:57:42.933Z,21.3
2022-09-20T12:58:45.464Z,21.2
2022-09-20T12:59:47.982Z,21.2
2022-09-20T13:00:50.653Z,21.2
2022-09-20T13:01:53.129Z,21.2
2022-09-20T13:02:55.514Z,21.3
2022-09-20T13:03:58.026Z,21.2
2022-09-20T13:05:00.488Z,21.2
2022-09-20T13:06:03.009Z,21.2
2022-09-20T13:07:05.211Z,21.2
2022-09-20T13:08:07.724Z,21.3
2022-09-20T13:09:09.918Z,21.2
2022-09-20T13:10:12.137Z,21.2
2022-09-20T13:11:14.611Z,21.2
2022-09-20T13:12:16.818Z,21.3
2022-09-20T13:13:19.356Z,21.2
2022-09-20T13:14:21.856Z,21.3
2022-09-20T13:15:24.389Z,21.1
2022-09-20T13:16:26.131Z,21.2
2022-09-20T13:17:28.791Z,21.2
2022-09-20T13:18:31.261Z,21.2
2022-09-20T13:19:33.745Z,21.1
2022-09-20T13:20:36.221Z,21.3
2022-09-20T13:21:38.706Z,21.3
2022-09-20T13:22:40.902Z,21.2
2022-09-20T13:23:43.350Z,21.1
2022-09-20T13:24:45.377Z,21
2022-09-20T13:25:47.576Z,21.2
2022-09-20T13:26:50.048Z,21.1
2022-09-20T13:27:51.948Z,21.3
2022-09-20T13:28:54.171Z,21.3
2022-09-20T13:29:56.770Z,21.2
2022-09-20T13:30:59.296Z,21.2
2022-09-20T13:32:01.793Z,21.3
2022-09-20T13:33:04.276Z,21.2
2022-09-20T13:34:06.653Z,21.3
2022-09-20T13:35:08.999Z,21.2
2022-09-20T13:36:11.483Z,21.2
2022-09-20T13:37:13.954Z,21.2
2022-09-20T13:38:16.452Z,21.2
2022-09-20T13:39:19.007Z,21.2
2022-09-20T13:40:21.594Z,21.2
2022-09-20T13:41:24.233Z,21.2
2022-09-20T13:42:26.711Z,21.2
2022-09-20T13:43:28.826Z,21.2
2022-09-20T13:44:31.034Z,21.2
2022-09-20T13:45:34.705Z,21.2
2022-09-20T13:46:37.532Z,21.1
2022-09-20T13:47:39.735Z,21.3
2022-09-20T13:48:42.216Z,21.2
2022-09-20T13:49:44.794Z,21.2
2022-09-20T13:51:51.414Z,21.2
2022-09-20T13:52:53.390Z,21.3
2022-09-20T13:53:55.590Z,21.2
2022-09-20T13:54:57.837Z,21.1
2022-09-20T13:56:00.068Z,21.2
2022-09-20T13:57:02.325Z,21.2
2022-09-20T13:58:04.820Z,21.2
2022-09-20T13:59:07.298Z,21.1
2022-09-20T14:00:09.244Z,21.3
2022-09-20T14:01:11.854Z,21.3
2022-09-20T14:02:14.710Z,21.2
2022-09-20T14:03:17.031Z,21.2
2022-09-20T14:04:18.679Z,21.2
2022-09-20T14:05:20.614Z,21.2
2022-09-20T14:06:23.104Z,21.1
2022-09-20T14:07:25.311Z,21.2
2022-09-20T14:08:27.237Z,21.2
2022-09-20T14:09:29.767Z,21.2
2022-09-20T14:10:32.260Z,21.2
2022-09-20T14:11:34.759Z,21.2
2022-09-20T14:12:36.973Z,21.2
2022-09-20T14:13:39.446Z,21.2
2022-09-20T14:14:41.921Z,21.2
2022-09-20T14:15:44.432Z,21.1
2022-09-20T14:16:46.970Z,21.1